sensor_id;sensor_type;location;lat;lon;timestamp;pressure;altitude;pressure_sealevel;temperature;humidity
6528;BME280;64597;42.664;23.256;2024-02-26T00:01:31;94139.44;;;8.67;68.86
6528;BME280;64597;42.664;23.256;2024-02-26T00:03:58;94133.03;;;8.63;68.18
6528;BME280;64597;42.664;23.256;2024-02-26T00:06:24;94127.13;;;8.56;68.88
6528;BME280;64597;42.664;23.256;2024-02-26T00:08:50;94115.72;;;8.51;68.55
6528;BME280;64597;42.664;23.256;2024-02-26T00:11:15;94127.34;;;8.55;68.97
6528;BME280;64597;42.664;23.256;2024-02-26T00:13:41;94128.63;;;8.52;69.22
6528;BME280;64597;42.664;23.256;2024-02-26T00:16:06;94136.03;;;8.55;69.22
6528;BME280;64597;42.664;23.256;2024-02-26T00:18:33;94123.38;;;8.52;69.78
6528;BME280;64597;42.664;23.256;2024-02-26T00:20:58;94129.28;;;8.59;70.09
6528;BME280;64597;42.664;23.256;2024-02-26T00:23:24;94127.69;;;8.58;69.65
6528;BME280;64597;42.664;23.256;2024-02-26T00:25:49;94126.66;;;8.59;70.02
6528;BME280;64597;42.664;23.256;2024-02-26T00:28:14;94101.78;;;8.50;70.25
6528;BME280;64597;42.664;23.256;2024-02-26T00:30:40;94120.47;;;8.65;70.39
6528;BME280;64597;42.664;23.256;2024-02-26T00:33:05;94122.41;;;8.70;70.88
6528;BME280;64597;42.664;23.256;2024-02-26T00:35:31;94129.47;;;8.69;70.74
6528;BME280;64597;42.664;23.256;2024-02-26T00:37:56;94117.28;;;8.63;71.39
6528;BME280;64597;42.664;23.256;2024-02-26T00:40:23;94110.53;;;8.67;71.44
6528;BME280;64597;42.664;23.256;2024-02-26T00:42:49;94110.06;;;8.70;71.05
6528;BME280;64597;42.664;23.256;2024-02-26T00:45:15;94105.94;;;8.74;70.40
6528;BME280;64597;42.664;23.256;2024-02-26T00:47:41;94105.47;;;8.77;70.58
6528;BME280;64597;42.664;23.256;2024-02-26T00:50:08;94101.34;;;8.81;70.68
6528;BME280;64597;42.664;23.256;2024-02-26T00:52:34;94098.69;;;8.81;70.87
6528;BME280;64597;42.664;23.256;2024-02-26T00:55:00;94093.25;;;8.71;69.82
6528;BME280;64597;42.664;23.256;2024-02-26T00:57:25;94096.56;;;8.78;70.48
6528;BME280;64597;42.664;23.256;2024-02-26T00:59:50;94096.88;;;8.82;69.67
6528;BME280;64597;42.664;23.256;2024-02-26T01:02:16;94085.47;;;8.76;69.85
6528;BME280;64597;42.664;23.256;2024-02-26T01:04:42;94096.19;;;8.86;69.90
6528;BME280;64597;42.664;23.256;2024-02-26T01:07:07;94089.88;;;8.87;69.31
6528;BME280;64597;42.664;23.256;2024-02-26T01:09:32;94071.09;;;8.67;69.91
6528;BME280;64597;42.664;23.256;2024-02-26T01:11:58;94090.19;;;8.74;69.83
6528;BME280;64597;42.664;23.256;2024-02-26T01:14:23;94086.41;;;8.70;70.58
6528;BME280;64597;42.664;23.256;2024-02-26T01:16:49;94088.50;;;8.68;71.04
6528;BME280;64597;42.664;23.256;2024-02-26T01:19:14;94081.38;;;8.69;71.33
6528;BME280;64597;42.664;23.256;2024-02-26T01:21:40;94091.53;;;8.77;70.78
6528;BME280;64597;42.664;23.256;2024-02-26T01:24:06;94091.88;;;8.80;71.30
6528;BME280;64597;42.664;23.256;2024-02-26T01:26:32;94090.25;;;8.79;71.33
6528;BME280;64597;42.664;23.256;2024-02-26T01:28:57;94084.53;;;8.82;72.09
6528;BME280;64597;42.664;23.256;2024-02-26T01:31:23;94070.28;;;8.78;71.44
6528;BME280;64597;42.664;23.256;2024-02-26T01:33:48;94080.16;;;8.88;71.29
6528;BME280;64597;42.664;23.256;2024-02-26T01:36:13;94081.53;;;8.90;71.15
6528;BME280;64597;42.664;23.256;2024-02-26T01:38:39;94077.84;;;8.91;71.23
6528;BME280;64597;42.664;23.256;2024-02-26T01:41:04;94078.22;;;8.95;71.12
6528;BME280;64597;42.664;23.256;2024-02-26T01:43:30;94085.03;;;8.96;70.62
6528;BME280;64597;42.664;23.256;2024-02-26T01:45:55;94064.78;;;8.80;71.60
6528;BME280;64597;42.664;23.256;2024-02-26T01:48:21;94073.66;;;8.90;71.68
6528;BME280;64597;42.664;23.256;2024-02-26T01:50:46;94071.47;;;8.87;70.96
6528;BME280;64597;42.664;23.256;2024-02-26T01:53:12;94073.09;;;8.88;71.01
6528;BME280;64597;42.664;23.256;2024-02-26T01:55:38;94071.03;;;8.90;71.08
6528;BME280;64597;42.664;23.256;2024-02-26T01:58:04;94074.09;;;8.87;71.33
6528;BME280;64597;42.664;23.256;2024-02-26T02:00:30;94066.22;;;8.87;71.21
6528;BME280;64597;42.664;23.256;2024-02-26T02:02:56;94078.81;;;8.85;71.50
6528;BME280;64597;42.664;23.256;2024-02-26T02:05:23;94073.53;;;8.85;71.22
6528;BME280;64597;42.664;23.256;2024-02-26T02:07:48;94066.22;;;8.87;71.25
6528;BME280;64597;42.664;23.256;2024-02-26T02:10:18;94076.28;;;8.90;71.16
6528;BME280;64597;42.664;23.256;2024-02-26T02:12:48;94058.50;;;8.81;71.78
6528;BME280;64597;42.664;23.256;2024-02-26T02:15:14;94052.44;;;8.80;71.97
6528;BME280;64597;42.664;23.256;2024-02-26T02:17:39;94062.56;;;8.88;71.52
6528;BME280;64597;42.664;23.256;2024-02-26T02:20:08;94069.19;;;8.91;71.73
6528;BME280;64597;42.664;23.256;2024-02-26T02:22:34;94060.03;;;8.93;71.90
6528;BME280;64597;42.664;23.256;2024-02-26T02:24:59;94066.66;;;8.96;71.95
6528;BME280;64597;42.664;23.256;2024-02-26T02:27:26;94055.25;;;8.90;71.73
6528;BME280;64597;42.664;23.256;2024-02-26T02:29:52;94068.47;;;8.95;71.97
6528;BME280;64597;42.664;23.256;2024-02-26T02:32:18;94061.38;;;8.96;71.52
6528;BME280;64597;42.664;23.256;2024-02-26T02:34:45;94046.31;;;8.91;71.58
6528;BME280;64597;42.664;23.256;2024-02-26T02:37:10;94044.19;;;8.88;71.59
6528;BME280;64597;42.664;23.256;2024-02-26T02:39:36;94066.41;;;8.97;71.63
6528;BME280;64597;42.664;23.256;2024-02-26T02:42:02;94053.44;;;8.91;71.56
6528;BME280;64597;42.664;23.256;2024-02-26T02:44:27;94065.13;;;9.00;71.28
6528;BME280;64597;42.664;23.256;2024-02-26T02:46:52;94065.47;;;9.03;71.77
6528;BME280;64597;42.664;23.256;2024-02-26T02:49:18;94072.06;;;9.06;71.68
6528;BME280;64597;42.664;23.256;2024-02-26T02:51:44;94055.56;;;8.94;72.05
6528;BME280;64597;42.664;23.256;2024-02-26T02:54:09;94077.69;;;9.09;72.72
6528;BME280;64597;42.664;23.256;2024-02-26T02:56:34;94082.94;;;9.09;72.81
6528;BME280;64597;42.664;23.256;2024-02-26T02:59:01;94085.56;;;9.09;72.33
6528;BME280;64597;42.664;23.256;2024-02-26T03:01:27;94080.53;;;9.08;72.42
6528;BME280;64597;42.664;23.256;2024-02-26T03:03:52;94077.13;;;9.07;72.61
6528;BME280;64597;42.664;23.256;2024-02-26T03:06:18;94074.38;;;9.02;72.11
6528;BME280;64597;42.664;23.256;2024-02-26T03:08:44;94076.13;;;8.97;72.76
6528;BME280;64597;42.664;23.256;2024-02-26T03:11:13;94076.47;;;9.00;72.64
6528;BME280;64597;42.664;23.256;2024-02-26T03:13:39;94083.31;;;9.01;73.24
6528;BME280;64597;42.664;23.256;2024-02-26T03:16:05;94081.25;;;9.03;73.01
6528;BME280;64597;42.664;23.256;2024-02-26T03:18:31;94075.25;;;9.08;73.70
6528;BME280;64597;42.664;23.256;2024-02-26T03:20:56;94073.44;;;9.08;73.10
6528;BME280;64597;42.664;23.256;2024-02-26T03:23:21;94075.06;;;9.09;73.08
6528;BME280;64597;42.664;23.256;2024-02-26T03:25:47;94067.38;;;9.08;72.49
6528;BME280;64597;42.664;23.256;2024-02-26T03:28:13;94049.16;;;9.01;73.41
6528;BME280;64597;42.664;23.256;2024-02-26T03:30:38;94057.66;;;9.08;72.88
6528;BME280;64597;42.664;23.256;2024-02-26T03:33:04;94056.66;;;9.09;73.00
6528;BME280;64597;42.664;23.256;2024-02-26T03:35:29;94037.59;;;9.02;72.06
6528;BME280;64597;42.664;23.256;2024-02-26T03:37:55;94044.19;;;9.05;71.88
6528;BME280;64597;42.664;23.256;2024-02-26T03:40:20;94024.66;;;8.84;72.05
6528;BME280;64597;42.664;23.256;2024-02-26T03:42:46;94041.06;;;8.91;71.75
6528;BME280;64597;42.664;23.256;2024-02-26T03:45:12;94060.38;;;8.97;72.47
6528;BME280;64597;42.664;23.256;2024-02-26T03:47:38;94044.72;;;8.90;72.08
6528;BME280;64597;42.664;23.256;2024-02-26T03:50:06;94053.81;;;8.99;72.22
6528;BME280;64597;42.664;23.256;2024-02-26T03:52:32;94046.72;;;9.00;72.44
6528;BME280;64597;42.664;23.256;2024-02-26T03:54:57;94049.34;;;9.00;72.76
6528;BME280;64597;42.664;23.256;2024-02-26T03:57:23;94042.28;;;9.00;71.82
6528;BME280;64597;42.664;23.256;2024-02-26T03:59:48;94045.72;;;9.01;72.85
6528;BME280;64597;42.664;23.256;2024-02-26T04:02:13;94042.53;;;8.99;72.66
6528;BME280;64597;42.664;23.256;2024-02-26T04:04:39;94045.16;;;8.99;72.59
6528;BME280;64597;42.664;23.256;2024-02-26T04:07:04;94041.72;;;8.98;72.43
6528;BME280;64597;42.664;23.256;2024-02-26T04:09:33;94044.34;;;8.98;72.56
6528;BME280;64597;42.664;23.256;2024-02-26T04:11:59;94046.72;;;9.00;72.90
6528;BME280;64597;42.664;23.256;2024-02-26T04:14:24;94042.75;;;8.97;72.43
6528;BME280;64597;42.664;23.256;2024-02-26T04:16:50;94036.00;;;9.01;72.53
6528;BME280;64597;42.664;23.256;2024-02-26T04:19:17;94038.63;;;9.01;72.36
6528;BME280;64597;42.664;23.256;2024-02-26T04:21:43;94029.94;;;9.01;72.77
6528;BME280;64597;42.664;23.256;2024-02-26T04:24:08;94027.53;;;8.99;72.97
6528;BME280;64597;42.664;23.256;2024-02-26T04:26:34;94029.59;;;8.97;72.94
6528;BME280;64597;42.664;23.256;2024-02-26T04:29:00;94034.84;;;8.97;73.12
6528;BME280;64597;42.664;23.256;2024-02-26T04:31:26;94031.19;;;8.98;72.63
6528;BME280;64597;42.664;23.256;2024-02-26T04:33:52;94026.41;;;8.95;73.22
6528;BME280;64597;42.664;23.256;2024-02-26T04:36:17;94030.75;;;9.01;72.82
6528;BME280;64597;42.664;23.256;2024-02-26T04:38:46;94034.38;;;9.00;72.65
6528;BME280;64597;42.664;23.256;2024-02-26T04:41:11;94031.75;;;9.00;72.33
6528;BME280;64597;42.664;23.256;2024-02-26T04:43:37;94039.41;;;9.02;72.79
6528;BME280;64597;42.664;23.256;2024-02-26T04:46:07;94035.50;;;9.04;72.96
6528;BME280;64597;42.664;23.256;2024-02-26T04:48:34;94035.50;;;9.04;72.98
6528;BME280;64597;42.664;23.256;2024-02-26T04:50:59;94038.13;;;9.04;72.98
6528;BME280;64597;42.664;23.256;2024-02-26T04:53:25;94031.88;;;9.05;72.79
6528;BME280;64597;42.664;23.256;2024-02-26T04:55:50;94045.56;;;9.07;72.37
6528;BME280;64597;42.664;23.256;2024-02-26T04:58:16;94052.97;;;9.10;72.39
6528;BME280;64597;42.664;23.256;2024-02-26T05:00:41;94045.22;;;9.04;72.24
6528;BME280;64597;42.664;23.256;2024-02-26T05:03:07;94043.97;;;9.06;71.98
6528;BME280;64597;42.664;23.256;2024-02-26T05:05:33;94045.56;;;9.07;72.47
6528;BME280;64597;42.664;23.256;2024-02-26T05:07:58;94066.03;;;9.05;72.36
6528;BME280;64597;42.664;23.256;2024-02-26T05:10:23;94068.66;;;9.05;72.08
6528;BME280;64597;42.664;23.256;2024-02-26T05:12:49;94069.44;;;9.06;72.34
6528;BME280;64597;42.664;23.256;2024-02-26T05:15:15;94063.41;;;9.05;71.86
6528;BME280;64597;42.664;23.256;2024-02-26T05:17:44;94058.47;;;9.09;71.60
6528;BME280;64597;42.664;23.256;2024-02-26T05:20:10;94080.53;;;9.08;72.46
6528;BME280;64597;42.664;23.256;2024-02-26T05:22:36;94074.28;;;8.97;72.18
6528;BME280;64597;42.664;23.256;2024-02-26T05:25:02;94079.66;;;9.02;73.16
6528;BME280;64597;42.664;23.256;2024-02-26T05:27:28;94084.44;;;9.05;73.08
6528;BME280;64597;42.664;23.256;2024-02-26T05:29:54;94084.44;;;9.05;73.00
6528;BME280;64597;42.664;23.256;2024-02-26T05:32:19;94088.78;;;9.00;72.82
6528;BME280;64597;42.664;23.256;2024-02-26T05:34:45;94096.53;;;9.06;72.88
6528;BME280;64597;42.664;23.256;2024-02-26T05:37:10;94095.53;;;9.07;72.43
6528;BME280;64597;42.664;23.256;2024-02-26T05:39:36;94085.97;;;9.01;72.75
6528;BME280;64597;42.664;23.256;2024-02-26T05:42:02;94061.53;;;8.89;72.67
6528;BME280;64597;42.664;23.256;2024-02-26T05:44:28;94091.38;;;9.11;72.37
6528;BME280;64597;42.664;23.256;2024-02-26T05:46:54;94095.34;;;9.14;72.78
6528;BME280;64597;42.664;23.256;2024-02-26T05:49:19;94107.25;;;9.17;72.58
6528;BME280;64597;42.664;23.256;2024-02-26T05:51:45;94085.00;;;9.07;72.39
6528;BME280;64597;42.664;23.256;2024-02-26T05:54:10;94099.84;;;9.13;72.83
6528;BME280;64597;42.664;23.256;2024-02-26T05:56:36;94096.41;;;9.13;72.33
6528;BME280;64597;42.664;23.256;2024-02-26T05:59:01;94096.72;;;9.17;72.41
6528;BME280;64597;42.664;23.256;2024-02-26T06:01:27;94083.78;;;8.98;73.03
6528;BME280;64597;42.664;23.256;2024-02-26T06:03:52;94104.72;;;9.22;73.07
6528;BME280;64597;42.664;23.256;2024-02-26T06:06:17;94110.28;;;9.25;72.44
6528;BME280;64597;42.664;23.256;2024-02-26T06:08:44;94106.97;;;9.30;72.41
6528;BME280;64597;42.664;23.256;2024-02-26T06:11:09;94106.47;;;9.33;72.60
6528;BME280;64597;42.664;23.256;2024-02-26T06:13:35;94106.47;;;9.33;72.54
6528;BME280;64597;42.664;23.256;2024-02-26T06:16:01;94114.34;;;9.33;72.59
6528;BME280;64597;42.664;23.256;2024-02-26T06:18:26;94114.16;;;9.34;72.40
6528;BME280;64597;42.664;23.256;2024-02-26T06:20:52;94113.41;;;9.39;71.85
6528;BME280;64597;42.664;23.256;2024-02-26T06:23:17;94105.06;;;9.42;72.91
6528;BME280;64597;42.664;23.256;2024-02-26T06:25:42;94100.91;;;9.46;73.08
6528;BME280;64597;42.664;23.256;2024-02-26T06:28:08;94103.94;;;9.54;72.00
6528;BME280;64597;42.664;23.256;2024-02-26T06:30:34;94113.19;;;9.57;72.03
6528;BME280;64597;42.664;23.256;2024-02-26T06:33:00;94102.09;;;9.55;72.11
6528;BME280;64597;42.664;23.256;2024-02-26T06:35:25;94103.59;;;9.51;72.69
6528;BME280;64597;42.664;23.256;2024-02-26T06:37:51;94109.53;;;9.58;72.72
6528;BME280;64597;42.664;23.256;2024-02-26T06:40:18;94103.78;;;9.61;72.73
6528;BME280;64597;42.664;23.256;2024-02-26T06:42:44;94114.53;;;9.59;73.04
6528;BME280;64597;42.664;23.256;2024-02-26T06:45:09;94096.50;;;10.01;87.08
6528;BME280;64597;42.664;23.256;2024-02-26T06:47:35;94106.44;;;12.66;96.23
6528;BME280;64597;42.664;23.256;2024-02-26T06:50:01;94101.44;;;14.22;79.33
6528;BME280;64597;42.664;23.256;2024-02-26T06:52:27;94087.22;;;15.40;67.02
6528;BME280;64597;42.664;23.256;2024-02-26T06:54:53;94098.94;;;16.40;60.63
6528;BME280;64597;42.664;23.256;2024-02-26T06:57:22;94096.72;;;17.00;54.91
6528;BME280;64597;42.664;23.256;2024-02-26T06:59:47;94098.47;;;17.52;54.66
6528;BME280;64597;42.664;23.256;2024-02-26T07:02:16;94106.94;;;17.91;52.29
6528;BME280;64597;42.664;23.256;2024-02-26T07:04:42;94093.88;;;18.22;49.95
6528;BME280;64597;42.664;23.256;2024-02-26T07:07:08;94094.53;;;18.00;48.38
6528;BME280;64597;42.664;23.256;2024-02-26T07:09:34;94101.34;;;16.89;48.61
6528;BME280;64597;42.664;23.256;2024-02-26T07:11:59;94104.69;;;15.90;50.32
6528;BME280;64597;42.664;23.256;2024-02-26T07:14:24;94108.06;;;15.18;51.96
6528;BME280;64597;42.664;23.256;2024-02-26T07:16:50;94118.88;;;14.63;53.05
6528;BME280;64597;42.664;23.256;2024-02-26T07:19:16;94131.16;;;14.19;54.49
6528;BME280;64597;42.664;23.256;2024-02-26T07:21:41;94117.34;;;13.76;55.55
6528;BME280;64597;42.664;23.256;2024-02-26T07:24:07;94126.84;;;13.42;56.63
6528;BME280;64597;42.664;23.256;2024-02-26T07:26:32;94124.13;;;13.12;57.60
6528;BME280;64597;42.664;23.256;2024-02-26T07:28:58;94125.31;;;12.84;58.94
6528;BME280;64597;42.664;23.256;2024-02-26T07:31:23;94123.88;;;12.57;59.33
6528;BME280;64597;42.664;23.256;2024-02-26T07:33:49;94124.25;;;12.33;60.37
6528;BME280;64597;42.664;23.256;2024-02-26T07:36:14;94120.97;;;12.16;60.88
6528;BME280;64597;42.664;23.256;2024-02-26T07:38:39;94127.19;;;12.00;61.71
6528;BME280;64597;42.664;23.256;2024-02-26T07:41:05;94130.78;;;11.84;62.70
6528;BME280;64597;42.664;23.256;2024-02-26T07:43:30;94129.66;;;11.75;63.02
6528;BME280;64597;42.664;23.256;2024-02-26T07:45:57;94114.66;;;11.54;63.68
6528;BME280;64597;42.664;23.256;2024-02-26T07:48:23;94121.03;;;11.58;64.12
6528;BME280;64597;42.664;23.256;2024-02-26T07:50:48;94123.13;;;11.56;64.10
6528;BME280;64597;42.664;23.256;2024-02-26T07:53:14;94116.75;;;11.52;64.81
6528;BME280;64597;42.664;23.256;2024-02-26T07:55:39;94114.84;;;11.47;64.84
6528;BME280;64597;42.664;23.256;2024-02-26T07:58:05;94133.63;;;11.51;64.76
6528;BME280;64597;42.664;23.256;2024-02-26T08:00:30;94126.69;;;11.45;64.87
6528;BME280;64597;42.664;23.256;2024-02-26T08:02:56;94122.97;;;11.41;65.19
6528;BME280;64597;42.664;23.256;2024-02-26T08:05:21;94117.66;;;11.36;65.51
6528;BME280;64597;42.664;23.256;2024-02-26T08:07:46;94128.78;;;11.43;65.45
6528;BME280;64597;42.664;23.256;2024-02-26T08:10:12;94108.59;;;11.27;64.94
6528;BME280;64597;42.664;23.256;2024-02-26T08:12:38;94125.03;;;11.34;65.17
6528;BME280;64597;42.664;23.256;2024-02-26T08:15:04;94113.41;;;11.35;65.58
6528;BME280;64597;42.664;23.256;2024-02-26T08:17:30;94107.09;;;11.36;65.38
6528;BME280;64597;42.664;23.256;2024-02-26T08:19:55;94118.56;;;11.46;65.41
6528;BME280;64597;42.664;23.256;2024-02-26T08:22:22;94128.88;;;11.53;65.10
6528;BME280;64597;42.664;23.256;2024-02-26T08:24:47;94036.69;;;11.10;64.64
6528;BME280;64597;42.664;23.256;2024-02-26T08:27:13;94059.78;;;11.29;64.15
6528;BME280;64597;42.664;23.256;2024-02-26T08:29:38;94112.22;;;11.74;64.20
6528;BME280;64597;42.664;23.256;2024-02-26T08:32:04;94111.19;;;11.75;64.34
6528;BME280;64597;42.664;23.256;2024-02-26T08:34:30;94122.31;;;11.82;63.79
6528;BME280;64597;42.664;23.256;2024-02-26T08:36:57;94111.53;;;11.89;63.73
6528;BME280;64597;42.664;23.256;2024-02-26T08:39:22;94113.72;;;11.97;63.73
6528;BME280;64597;42.664;23.256;2024-02-26T08:41:48;94117.50;;;12.06;64.25
6528;BME280;64597;42.664;23.256;2024-02-26T08:44:13;94102.88;;;11.98;63.70
6528;BME280;64597;42.664;23.256;2024-02-26T08:46:39;94118.31;;;12.16;63.62
6528;BME280;64597;42.664;23.256;2024-02-26T08:49:04;94113.09;;;12.21;63.24
6528;BME280;64597;42.664;23.256;2024-02-26T08:51:29;94115.28;;;12.34;62.96
6528;BME280;64597;42.664;23.256;2024-02-26T08:53:55;94117.66;;;12.36;63.32
6528;BME280;64597;42.664;23.256;2024-02-26T08:56:20;94115.28;;;12.34;63.38
6528;BME280;64597;42.664;23.256;2024-02-26T08:58:47;94118.75;;;12.40;63.13
6528;BME280;64597;42.664;23.256;2024-02-26T09:01:14;94087.69;;;12.20;62.76
6528;BME280;64597;42.664;23.256;2024-02-26T09:03:40;94105.28;;;12.41;62.83
6528;BME280;64597;42.664;23.256;2024-02-26T09:06:06;94109.25;;;12.44;62.79
6528;BME280;64597;42.664;23.256;2024-02-26T09:08:32;94105.53;;;12.40;62.61
6528;BME280;64597;42.664;23.256;2024-02-26T09:10:57;94097.06;;;12.43;62.14
6528;BME280;64597;42.664;23.256;2024-02-26T09:13:23;94094.97;;;12.45;62.16
6528;BME280;64597;42.664;23.256;2024-02-26T09:15:48;94091.56;;;12.50;62.14
6528;BME280;64597;42.664;23.256;2024-02-26T09:18:14;94105.06;;;12.53;62.18
6528;BME280;64597;42.664;23.256;2024-02-26T09:20:41;94093.72;;;12.58;62.34
6528;BME280;64597;42.664;23.256;2024-02-26T09:23:06;94098.50;;;12.66;62.13
6528;BME280;64597;42.664;23.256;2024-02-26T09:25:32;94103.31;;;12.74;61.51
6528;BME280;64597;42.664;23.256;2024-02-26T09:27:59;94095.13;;;12.75;61.36
6528;BME280;64597;42.664;23.256;2024-02-26T09:30:24;94098.06;;;12.84;61.43
6528;BME280;64597;42.664;23.256;2024-02-26T09:32:50;94097.31;;;12.93;61.17
6528;BME280;64597;42.664;23.256;2024-02-26T09:35:15;94095.00;;;13.07;60.71
6528;BME280;64597;42.664;23.256;2024-02-26T09:37:41;94091.31;;;13.13;61.03
6528;BME280;64597;42.664;23.256;2024-02-26T09:40:08;94087.88;;;13.17;60.50
6528;BME280;64597;42.664;23.256;2024-02-26T09:42:37;94088.44;;;13.25;60.74
6528;BME280;64597;42.664;23.256;2024-02-26T09:45:05;94086.84;;;13.29;60.29
6528;BME280;64597;42.664;23.256;2024-02-26T09:47:34;94079.72;;;13.44;59.81
6528;BME280;64597;42.664;23.256;2024-02-26T09:50:01;94073.91;;;13.52;59.80
6528;BME280;64597;42.664;23.256;2024-02-26T09:52:28;94081.03;;;13.72;58.63
6528;BME280;64597;42.664;23.256;2024-02-26T09:54:56;94071.25;;;13.77;58.91
6528;BME280;64597;42.664;23.256;2024-02-26T09:57:21;94069.41;;;13.83;57.88
6528;BME280;64597;42.664;23.256;2024-02-26T09:59:51;94060.91;;;13.91;58.08
6528;BME280;64597;42.664;23.256;2024-02-26T10:02:19;94059.31;;;14.00;57.84
6528;BME280;64597;42.664;23.256;2024-02-26T10:04:46;94059.84;;;13.97;55.26
6528;BME280;64597;42.664;23.256;2024-02-26T10:07:13;94055.84;;;14.04;54.43
6528;BME280;64597;42.664;23.256;2024-02-26T10:09:39;94051.88;;;14.12;53.88
6528;BME280;64597;42.664;23.256;2024-02-26T10:12:07;94052.66;;;14.13;53.26
6528;BME280;64597;42.664;23.256;2024-02-26T10:14:34;94017.19;;;13.93;53.22
6528;BME280;64597;42.664;23.256;2024-02-26T10:16:59;94053.19;;;14.10;52.36
6528;BME280;64597;42.664;23.256;2024-02-26T10:19:28;94048.41;;;14.06;52.72
6528;BME280;64597;42.664;23.256;2024-02-26T10:21:57;94042.81;;;14.23;52.93
6528;BME280;64597;42.664;23.256;2024-02-26T10:24:24;94024.78;;;14.35;53.01
6528;BME280;64597;42.664;23.256;2024-02-26T10:26:54;94025.84;;;14.39;52.86
6528;BME280;64597;42.664;23.256;2024-02-26T10:29:20;94009.19;;;14.29;51.74
6528;BME280;64597;42.664;23.256;2024-02-26T10:31:46;94021.03;;;14.46;52.38
6528;BME280;64597;42.664;23.256;2024-02-26T10:34:12;93995.03;;;14.43;51.61
6528;BME280;64597;42.664;23.256;2024-02-26T10:36:38;94013.28;;;14.65;51.71
6528;BME280;64597;42.664;23.256;2024-02-26T10:39:06;94018.59;;;14.60;51.67
6528;BME280;64597;42.664;23.256;2024-02-26T10:41:35;94015.34;;;14.73;51.51
6528;BME280;64597;42.664;23.256;2024-02-26T10:44:01;94008.16;;;14.78;50.74
6528;BME280;64597;42.664;23.256;2024-02-26T10:46:27;93994.88;;;14.78;50.70
6528;BME280;64597;42.664;23.256;2024-02-26T10:48:53;94005.25;;;14.75;50.15
6528;BME280;64597;42.664;23.256;2024-02-26T10:51:22;94002.03;;;14.83;50.14
6528;BME280;64597;42.664;23.256;2024-02-26T10:53:56;94002.78;;;14.94;50.51
6528;BME280;64597;42.664;23.256;2024-02-26T10:56:30;94006.72;;;15.01;49.78
6528;BME280;64597;42.664;23.256;2024-02-26T10:58:58;93998.22;;;14.99;49.63
6528;BME280;64597;42.664;23.256;2024-02-26T11:01:25;93996.19;;;14.86;49.35
6528;BME280;64597;42.664;23.256;2024-02-26T11:03:52;93981.31;;;14.85;49.16
6528;BME280;64597;42.664;23.256;2024-02-26T11:06:20;93987.38;;;14.91;49.39
6528;BME280;64597;42.664;23.256;2024-02-26T11:08:53;93987.59;;;14.99;49.01
6528;BME280;64597;42.664;23.256;2024-02-26T11:11:19;93991.41;;;14.83;48.90
6528;BME280;64597;42.664;23.256;2024-02-26T11:13:46;93980.34;;;14.71;49.21
6528;BME280;64597;42.664;23.256;2024-02-26T11:16:19;93988.75;;;14.88;49.30
6528;BME280;64597;42.664;23.256;2024-02-26T11:18:46;93989.34;;;14.75;49.00
6528;BME280;64597;42.664;23.256;2024-02-26T11:21:18;93994.31;;;14.86;49.46
6528;BME280;64597;42.664;23.256;2024-02-26T11:23:45;93991.44;;;14.78;48.96
6528;BME280;64597;42.664;23.256;2024-02-26T11:26:12;93987.72;;;14.79;48.61
6528;BME280;64597;42.664;23.256;2024-02-26T11:28:39;93958.09;;;14.62;48.25
6528;BME280;64597;42.664;23.256;2024-02-26T11:31:05;93986.41;;;14.81;48.72
6528;BME280;64597;42.664;23.256;2024-02-26T11:33:33;93983.81;;;14.71;48.69
6528;BME280;64597;42.664;23.256;2024-02-26T11:36:02;93979.00;;;14.73;48.72
6528;BME280;64597;42.664;23.256;2024-02-26T11:38:28;93962.31;;;14.68;48.89
6528;BME280;64597;42.664;23.256;2024-02-26T11:40:53;93980.88;;;14.73;49.07
6528;BME280;64597;42.664;23.256;2024-02-26T11:43:57;93976.59;;;14.77;48.93
6528;BME280;64597;42.664;23.256;2024-02-26T11:46:32;93973.34;;;14.90;48.95
6528;BME280;64597;42.664;23.256;2024-02-26T11:52:08;93960.03;;;14.95;49.03
6528;BME280;64597;42.664;23.256;2024-02-26T11:54:48;93962.72;;;14.90;48.78
6528;BME280;64597;42.664;23.256;2024-02-26T11:57:30;93960.81;;;14.96;48.86
6528;BME280;64597;42.664;23.256;2024-02-26T12:02:59;93964.22;;;15.01;48.36
6528;BME280;64597;42.664;23.256;2024-02-26T12:05:31;93974.25;;;15.09;48.20
6528;BME280;64597;42.664;23.256;2024-02-26T12:08:02;93963.34;;;15.11;47.68
6528;BME280;64597;42.664;23.256;2024-02-26T12:10:39;93971.72;;;15.33;48.32
6528;BME280;64597;42.664;23.256;2024-02-26T12:13:10;93981.09;;;15.20;46.19
6528;BME280;64597;42.664;23.256;2024-02-26T12:15:42;93986.13;;;15.22;46.80
6528;BME280;64597;42.664;23.256;2024-02-26T12:18:09;93976.31;;;15.17;46.60
6528;BME280;64597;42.664;23.256;2024-02-26T12:20:38;93969.69;;;15.20;46.21
6528;BME280;64597;42.664;23.256;2024-02-26T12:23:04;93968.94;;;15.14;46.16
6528;BME280;64597;42.664;23.256;2024-02-26T12:25:31;93978.97;;;15.17;46.38
6528;BME280;64597;42.664;23.256;2024-02-26T12:28:00;93991.28;;;15.03;46.36
6528;BME280;64597;42.664;23.256;2024-02-26T12:30:26;93993.88;;;15.13;46.71
6528;BME280;64597;42.664;23.256;2024-02-26T12:32:55;93990.63;;;15.21;46.53
6528;BME280;64597;42.664;23.256;2024-02-26T12:35:26;93994.16;;;15.17;46.26
6528;BME280;64597;42.664;23.256;2024-02-26T12:37:53;93977.03;;;14.94;46.82
6528;BME280;64597;42.664;23.256;2024-02-26T12:40:19;93989.44;;;15.04;46.88
6528;BME280;64597;42.664;23.256;2024-02-26T12:42:45;93950.56;;;14.79;46.26
6528;BME280;64597;42.664;23.256;2024-02-26T12:45:12;93990.13;;;15.19;46.38
6528;BME280;64597;42.664;23.256;2024-02-26T12:47:39;93959.44;;;15.03;46.24
6528;BME280;64597;42.664;23.256;2024-02-26T12:50:05;93984.00;;;15.24;45.66
6528;BME280;64597;42.664;23.256;2024-02-26T12:52:35;93987.97;;;15.21;45.79
6528;BME280;64597;42.664;23.256;2024-02-26T12:55:02;93978.38;;;15.30;46.01
6528;BME280;64597;42.664;23.256;2024-02-26T12:57:30;93987.91;;;15.31;45.71
6528;BME280;64597;42.664;23.256;2024-02-26T12:59:56;93984.72;;;15.34;45.46
6528;BME280;64597;42.664;23.256;2024-02-26T13:02:22;93983.06;;;15.43;45.23
6528;BME280;64597;42.664;23.256;2024-02-26T13:04:48;93985.09;;;15.56;45.17
6528;BME280;64597;42.664;23.256;2024-02-26T13:07:14;93976.91;;;15.53;44.66